Gettysburg, SD (57442)

3:11 PM CDT on September 21, 2014 (GMT -0500)
KSDHOVEN2 | Change Station
CLOSE
Current Station
Personal Weather Station
Location: Hoven, SD
Elevation: 1877 ft
Nearby Weather Stations

Elev 1877 ft 45.24 °N, 99.78 °W | Updated 1 minute ago

Clear
Clear
69.6 °F
Feels Like 69.6 °F
N
5.8
Wind Variable Wind from NNW
Gusts 8.3 mph

Today
High -- | Low -- °F
--% Chance of Precip.
Yesterday
High -- | Low -- °F
Precip. -- in
7:25 AM 7:39 PM
Waning Crescent, 5% visible
Pressure 30.24 in
Visibility 10.0 miles
Clouds Clear
Dew Point 33 °F
Humidity 26%
Rainfall 0.00 in
Snow Depth 0 in
UV 6 out of 12
Pollen 5.20 out of 12
Air Quality Not available.
Flu Activity Not available.
METAR KMBG 211952Z AUTO 31004KT 10SM CLR 22/07 A3024 RMK AO2 SLP239 T02220067

More Conditions Fewer Conditions

Pressure 30.24 in
Visibility 10.0 miles
Clouds Clear
Dew Point 33 °F
Humidity 26%
Rainfall 0.00 in
Snow Depth 0 in
UV 6 out of 12
Pollen 5.20 out of 12
Air Quality Not available.
Flu Activity Not available.
METAR KMBG 211952Z AUTO 31004KT 10SM CLR 22/07 A3024 RMK AO2 SLP239 T02220067

More Conditions Fewer Conditions

10-Day Weather Forecast

Almanac

Astronomy

Sep. 21, 2014 Rise Set
Actual Time 7:25 AM CDT 7:39 PM CDT
Civil Twilight 6:56 AM CDT 8:08 PM CDT
Nautical Twilight 6:22 AM CDT 8:42 PM CDT
Astronomical Twilight 5:46 AM CDT 9:18 PM CDT
Moon 4:56 AM CDT 6:20 PM CDT
Length of Visible Light 13h 12m
Length of Day
12h 13m
Tomorrow will be 3m 7s shorter.
Waning Crescent, 5% of the Moon is Illuminated
Today
Waning Crescent
Sep 24
New
Oct 1
First Quarter
Oct 8
Full
Oct 15
Last Quarter

Today's Extremes

State Highs State Lows

Community

WunderPhotos

Upload Photos

1,755,243 photos uploaded!

Nearby

Snow Depth

Station Depth Elevation
Blind Park 0 in 6890 ft

Earthquake Activity

City Distance Mag. Time & Date
No recent earthquake activity has been reported nearby.
Minimum magnitude displayed is 2.5.

Coastal Water Temperatures

Place Temperature
No Stations Reporting

Nearby Weather Stations